Latest Weather Observations for Hay Point

IDQ60801

Issued at 7:35 pm EST Wednesday 23 April 2014 (issued every 30 minutes, with the page automatically refreshed every 10 minutes)

About weather observations | Map of weather stations | Latest weather observations for QLD | Other Formats
Station Details ID: 033317 Name: HAY POINT Lat: -21.29 Lon: 149.30 Height: 7.0 m
Data from the previous 72 hours. | See also: Recent months for locations in Queensland
Date/Time
EST
Temp
°C
App
Temp
°C
Dew
Point
Rel
Hum
%
Delta-T
°C
Wind Press
QNH
hPa
Press
MSL
hPa
Rain
since 9 am
mm
Dir
 
Spd
km/h
Gust
km/h
Spd
kts
Gust
kts
23/07:30pm - - - - - SSE 33 41 18 22 - - -
23/07:00pm - - - - - SSE 32 39 17 21 - - -
23/06:30pm - - - - - SSE 37 44 20 24 - - -
23/06:00pm - - - - - SSE 39 46 21 25 - - -
23/05:30pm - - - - - SSE 41 48 22 26 - - -
23/05:00pm - - - - - S 26 33 14 18 - - -
23/04:30pm - - - - - S 28 33 15 18 - - -
23/04:00pm - - - - - S 28 33 15 18 - - -
23/03:30pm - - - - - S 28 37 15 20 - - -
23/03:00pm - - - - - SSW 26 33 14 18 - - -
23/02:30pm - - - - - SSW 30 35 16 19 - - -
23/02:00pm - - - - - SSW 32 41 17 22 - - -
23/01:30pm - - - - - SSW 32 43 17 23 - - -
23/01:00pm - - - - - SSW 30 41 16 22 - - -
23/12:30pm - - - - - SSW 28 35 15 19 - - -
23/12:00pm - - - - - SSW 24 32 13 17 - - -
23/11:30am - - - - - S 28 37 15 20 - - -
23/11:00am - - - - - S 32 37 17 20 - - -
23/10:30am - - - - - SSE 35 43 19 23 - - -
23/10:00am - - - - - S 30 35 16 19 - - -
23/09:30am - - - - - S 24 33 13 18 - - -
23/09:00am - - - - - S 32 39 17 21 - - -
23/08:30am - - - - - SSW 26 33 14 18 - - -
23/08:00am - - - - - S 17 28 9 15 - - -
23/07:30am - - - - - SE 30 35 16 19 - - -
23/07:00am - - - - - ESE 30 37 16 20 - - -
23/06:30am - - - - - S 19 26 10 14 - - -
23/06:00am - - - - - S 20 28 11 15 - - -
23/05:30am - - - - - SSW 26 32 14 17 - - -
23/05:00am - - - - - S 17 26 9 14 - - -
23/04:30am - - - - - SSW 20 24 11 13 - - -
23/04:00am - - - - - SSW 24 30 13 16 - - -
23/03:30am - - - - - SSW 19 22 10 12 - - -
23/03:00am - - - - - SE 22 30 12 16 - - -
23/02:30am - - - - - SE 26 32 14 17 - - -
23/02:00am - - - - - ESE 26 33 14 18 - - -
23/01:30am - - - - - ESE 30 37 16 20 - - -
23/01:00am - - - - - SE 24 30 13 16 - - -
23/12:30am - - - - - SE 26 33 14 18 - - -
23/12:00am - - - - - SE 26 33 14 18 - - -
 
Date/Time
EST
Temp
°C
App
Temp
°C
Dew
Point
Rel
Hum
%
Delta-T
°C
Wind Press
QNH
hPa
Press
MSL
hPa
Rain
since 9 am
mm
Dir
 
Spd
km/h
Gust
km/h
Spd
kts
Gust
kts
22/11:30pm - - - - - SE 22 30 12 16 - - -
22/11:00pm - - - - - SSE 20 30 11 16 - - -
22/10:30pm - - - - - SE 20 30 11 16 - - -
22/10:00pm - - - - - SE 22 28 12 15 - - -
22/09:30pm - - - - - ESE 26 32 14 17 - - -
22/09:00pm - - - - - SE 19 26 10 14 - - -
22/08:30pm - - - - - ESE 24 28 13 15 - - -
22/08:00pm - - - - - ESE 24 30 13 16 - - -
22/07:30pm - - - - - E 26 32 14 17 - - -
22/07:00pm - - - - - E 28 32 15 17 - - -
22/06:30pm - - - - - E 24 30 13 16 - - -
22/06:00pm - - - - - E 22 26 12 14 - - -
22/05:30pm - - - - - E 24 28 13 15 - - -
22/05:00pm - - - - - E 26 30 14 16 - - -
22/04:30pm - - - - - E 20 24 11 13 - - -
22/04:00pm - - - - - ESE 19 24 10 13 - - -
22/03:30pm - - - - - ESE 20 28 11 15 - - -
22/03:00pm - - - - - ESE 22 28 12 15 - - -
22/02:30pm - - - - - SSE 24 32 13 17 - - -
22/02:00pm - - - - - SSE 22 30 12 16 - - -
22/01:30pm - - - - - SSE 22 30 12 16 - - -
22/01:00pm - - - - - SSE 28 32 15 17 - - -
22/12:30pm - - - - - SSE 28 32 15 17 - - -
22/12:00pm - - - - - SSE 28 35 15 19 - - -
22/11:30am - - - - - S 30 35 16 19 - - -
22/11:00am - - - - - S 30 39 16 21 - - -
22/10:30am - - - - - S 32 39 17 21 - - -
22/10:00am - - - - - SSW 19 24 10 13 - - -
22/09:30am - - - - - SSW 19 24 10 13 - - -
22/09:00am - - - - - SSW 20 28 11 15 - - -
22/08:30am - - - - - SSW 20 32 11 17 - - -
22/08:00am - - - - - SSE 30 33 16 18 - - -
22/07:30am - - - - - SE 30 37 16 20 - - -
22/07:00am - - - - - SE 28 35 15 19 - - -
22/06:30am - - - - - SE 30 39 16 21 - - -
22/06:00am - - - - - ESE 32 37 17 20 - - -
22/05:30am - - - - - ESE 32 37 17 20 - - -
22/05:00am - - - - - ESE 30 35 16 19 - - -
22/04:30am - - - - - ESE 30 35 16 19 - - -
22/04:00am - - - - - ESE 30 35 16 19 - - -
22/03:30am - - - - - ESE 32 37 17 20 - - -
22/03:00am - - - - - ESE 32 35 17 19 - - -
22/02:30am - - - - - ESE 32 37 17 20 - - -
22/02:00am - - - - - ESE 32 35 17 19 - - -
22/01:30am - - - - - ESE 32 37 17 20 - - -
22/01:00am - - - - - ESE 32 35 17 19 - - -
22/12:30am - - - - - ESE 33 39 18 21 - - -
22/12:00am - - - - - ESE 33 41 18 22 - - -
 
Date/Time
EST
Temp
°C
App
Temp
°C
Dew
Point
Rel
Hum
%
Delta-T
°C
Wind Press
QNH
hPa
Press
MSL
hPa
Rain
since 9 am
mm
Dir
 
Spd
km/h
Gust
km/h
Spd
kts
Gust
kts
21/11:30pm - - - - - ESE 33 39 18 21 - - -
21/11:00pm - - - - - E 32 37 17 20 - - -
21/10:30pm - - - - - ESE 35 41 19 22 - - -
21/10:00pm - - - - - E 33 39 18 21 - - -
21/09:30pm - - - - - ESE 33 39 18 21 - - -
21/09:00pm - - - - - SE 26 35 14 19 - - -
21/08:30pm - - - - - SE 28 35 15 19 - - -
21/08:00pm - - - - - ESE 28 35 15 19 - - -
21/07:30pm - - - - - ESE 28 35 15 19 - - -
21/07:00pm - - - - - E 24 28 13 15 - - -
21/06:30pm - - - - - E 22 26 12 14 - - -
21/06:00pm - - - - - E 20 24 11 13 - - -
21/05:30pm - - - - - ESE 24 28 13 15 - - -
21/05:00pm - - - - - E 24 30 13 16 - - -
21/04:30pm - - - - - E 24 28 13 15 - - -
21/04:00pm - - - - - E 24 30 13 16 - - -
21/03:30pm - - - - - E 26 32 14 17 - - -
21/03:00pm - - - - - ESE 24 28 13 15 - - -
21/02:30pm - - - - - ESE 22 28 12 15 - - -
21/02:00pm - - - - - ESE 22 28 12 15 - - -
21/01:30pm - - - - - ESE 24 30 13 16 - - -
21/01:00pm - - - - - ESE 24 30 13 16 - - -
21/12:30pm - - - - - SE 22 30 12 16 - - -
21/12:00pm - - - - - SE 20 28 11 15 - - -
21/11:30am - - - - - ESE 24 30 13 16 - - -
21/11:00am - - - - - E 20 26 11 14 - - -
21/10:30am - - - - - E 28 32 15 17 - - -
21/10:00am - - - - - E 26 30 14 16 - - -
21/09:30am - - - - - E 28 32 15 17 - - -
21/09:00am - - - - - E 28 33 15 18 - - -
21/08:30am - - - - - E 28 32 15 17 - - -
21/08:00am - - - - - E 26 28 14 15 - - -
21/07:30am - - - - - SW 9 15 5 8 - - -
21/07:00am - - - - - SSW 11 19 6 10 - - -
21/06:30am - - - - - SW 13 17 7 9 - - -
21/06:00am - - - - - SW 11 15 6 8 - - -
21/05:30am - - - - - SW 15 17 8 9 - - -
21/05:00am - - - - - SW 13 17 7 9 - - -
21/04:30am - - - - - SW 13 15 7 8 - - -
21/04:00am - - - - - SW 11 13 6 7 - - -
21/03:30am - - - - - SW 11 13 6 7 - - -
21/03:00am - - - - - SW 13 15 7 8 - - -
21/02:30am - - - - - SW 13 15 7 8 - - -
21/02:00am - - - - - S 9 13 5 7 - - -
21/01:30am - - - - - E 17 19 9 10 - - -
21/01:00am - - - - - E 17 20 9 11 - - -
21/12:30am - - - - - E 17 22 9 12 - - -
21/12:00am - - - - - E 19 22 10 12 - - -
 
Date/Time
EST
Temp
°C
App
Temp
°C
Dew
Point
Rel
Hum
%
Delta-T
°C
Wind Press
QNH
hPa
Press
MSL
hPa
Rain
since 9 am
mm
Dir
 
Spd
km/h
Gust
km/h
Spd
kts
Gust
kts
20/11:30pm - - - - - E 19 22 10 12 - - -
20/11:00pm - - - - - E 20 26 11 14 - - -
20/10:30pm - - - - - E 20 26 11 14 - - -
20/10:00pm - - - - - E 19 24 10 13 - - -
20/09:30pm - - - - - E 20 30 11 16 - - -
20/09:00pm - - - - - E 22 26 12 14 - - -
20/08:30pm - - - - - E 20 26 11 14 - - -
20/08:00pm - - - - - E 20 26 11 14 - - -

Other Formats:

Comma delimited format used in spreadsheet applications
http://www.bom.gov.au/fwo/IDQ60801/IDQ60801.99367.axf

JavaScript Object Notation format (JSON) in row-major order
http://www.bom.gov.au/fwo/IDQ60801/IDQ60801.99367.json